Capitol Logistics 1155


EBLG
Liège Airport
Liege, BE
GMMN
Mohammed V International Airport
Casablanca, MA

Route Details

Aircraft Information
Primary: Boeing 737-800BCF
Backup: Not Available
Route Data
Distance: 1185nm
Sched. Duration: 2h 45m
Avg. Duration: 3h 41m (+96m)
Times Flown: 1
Recm'd Route: Not Available
Planned Altitude: 36,000ft
Origin Wx: EBLG 251850Z 22010KT 7000 FEW037 00/M01 Q1011 NOSIG
Dest. Wx: GMMN 251830Z 35006KT 9999 FEW020 SCT200 14/13 Q1025 NOSIG
Notes:

Financial History
Total Freight: 44,880lbs
Average Load: 44,880lbs/flt
Fuel Used: 20,150lbs
Avg. Fuel Used: 20,150lbs/flt
Fuel Expense: $22,367
Avg. Fuel Expense: $22,367
Avg. Fuel Cost: $1.11/lbs
Total Gross Income: $270,626
Pilot Pay: $229
Total Expenses: $29,280
Total Revenue: $218,137
Average Revenue: $270,626.41